Weather History for Clarksville, TX

Change the Weather History Date:

Monday, September 9, 2013

  Actual Average (KPRX) Record (KPRX)
Temperature  
Mean Temperature 83 °F -  
Max Temperature 97 °F 85 °F 96 °F (2013)
Min Temperature 69 °F 65 °F 55 °F (2004)
Cooling Degree Days 18    
Growing Degree Days 33 (Base 50)    
Moisture  
Dew Point 60 °F    
Average Humidity 48    
Maximum Humidity 77    
Minimum Humidity 23    
Precipitation  
Precipitation 0.00 in - - ()
Sea Level Pressure  
Sea Level Pressure 29.98 in    
Wind  
Wind Speed 2 mph (SE)    
Max Wind Speed 12 mph    
Max Gust Speed 18 mph    
Visibility 8 miles    
Events      
Averages and records for this station are not official NWS values.
T = Trace of Precipitation, MM = Missing Value Source: NWS Daily Summary

Daily Weather History Graph

Daily Weather History Graph

Search for Another Location

Airport:

Trip Planner

Search our weather history database for the weather conditions in past years. The results will help you decide how hot, cold, wet, or windy it might be!

Date:

Astronomy

Sep. 09, 2013 Rise Set
Actual Time 6:59 AM CDT 7:34 PM CDT
Civil Twilight 6:34 AM CDT 7:59 PM CDT
Nautical Twilight 6:05 AM CDT 8:29 PM CDT
Astronomical Twilight 5:35 AM CDT 8:59 PM CDT
Moon 11:07 AM CDT (9/9) 10:07 PM CDT (9/9)
Length of Visible Light 13h 24m
Length of Day
12h 34m
Waxing Crescent, 19% of the Moon is Illuminated
Sep 9
Waxing Crescent
Sep 12
First Quarter
Sep 19
Full
Sep 26
Last Quarter
Oct 4
New

Hourly Weather History & Observations

Time (CDT) Temp. Heat Index Dew Point Humidity Pressure Visibility Wind Dir Wind Speed Gust Speed Precip Events Conditions
12:15 AM 77.9 °F - 62.2 °F 58% 29.93 in 7.0 mi Calm Calm - N/A   Clear
12:35 AM 77.2 °F - 62.8 °F 61% 29.93 in 10.0 mi Calm Calm - N/A   Clear
12:55 AM 78.1 °F - 62.6 °F 59% 29.93 in 7.0 mi Calm Calm - N/A   Clear
1:15 AM 77.0 °F - 62.6 °F 61% 29.93 in 10.0 mi Calm Calm - N/A   Clear
1:35 AM 77.0 °F - 62.6 °F 61% 29.94 in 10.0 mi Calm Calm - N/A   Clear
1:55 AM 74.1 °F - 62.8 °F 68% 29.94 in 10.0 mi Calm Calm - N/A   Clear
2:15 AM 73.6 °F - 63.3 °F 70% 29.95 in 10.0 mi Calm Calm - N/A   Clear
2:35 AM 73.6 °F - 63.0 °F 69% 29.95 in 10.0 mi Calm Calm - N/A   Clear
2:55 AM 74.7 °F - 62.8 °F 66% 29.95 in 7.0 mi Calm Calm - N/A   Clear
3:15 AM 74.3 °F - 63.3 °F 68% 29.95 in 10.0 mi Calm Calm - N/A   Clear
3:35 AM 73.9 °F - 62.6 °F 68% 29.95 in 10.0 mi Calm Calm - N/A   Clear
3:55 AM 72.7 °F - 62.8 °F 71% 29.96 in 10.0 mi Calm Calm - N/A   Clear
4:15 AM 73.8 °F - 62.6 °F 68% 29.96 in 10.0 mi Calm Calm - N/A   Clear
4:35 AM 73.6 °F - 62.6 °F 68% 29.96 in 10.0 mi Calm Calm - N/A   Clear
4:55 AM 72.7 °F - 62.6 °F 71% 29.96 in 10.0 mi Calm Calm - N/A   Clear
5:15 AM 72.5 °F - 62.4 °F 71% 29.97 in 10.0 mi Calm Calm - N/A   Clear
5:35 AM 72.0 °F - 62.6 °F 72% 29.97 in 10.0 mi Calm Calm - N/A   Clear
5:55 AM 71.2 °F - 62.6 °F 74% 29.98 in 7.0 mi Calm Calm - N/A   Clear
6:15 AM 69.8 °F - 62.2 °F 77% 29.98 in 10.0 mi Calm Calm - N/A   Clear
6:35 AM 70.3 °F - 62.6 °F 76% 29.98 in 10.0 mi SE 3.5 mph - N/A   Clear
6:55 AM 70.7 °F - 62.6 °F 75% 29.99 in 7.0 mi Calm Calm - N/A   Clear
7:15 AM 70.5 °F - 62.8 °F 76% 30.00 in 7.0 mi Calm Calm - N/A   Clear
7:35 AM 71.1 °F - 63.1 °F 76% 30.00 in 10.0 mi Calm Calm - N/A   Clear
7:55 AM 72.1 °F - 64.0 °F 76% 30.01 in 10.0 mi Calm Calm - N/A   Clear
8:15 AM 75.2 °F - 64.2 °F 69% 30.01 in 7.0 mi Calm Calm - N/A   Clear
8:35 AM 76.6 °F - 64.4 °F 66% 30.02 in 10.0 mi Calm Calm - N/A   Clear
8:55 AM 78.8 °F - 64.9 °F 62% 30.03 in 10.0 mi Calm Calm - N/A   Clear
9:15 AM 80.4 °F 82.4 °F 65.8 °F 61% 30.03 in 7.0 mi Calm Calm - N/A   Clear
9:35 AM 82.8 °F 84.9 °F 66.2 °F 57% 30.03 in 10.0 mi Calm Calm - N/A   Clear
9:55 AM 84.6 °F 86.8 °F 66.2 °F 54% 30.04 in 7.0 mi Calm Calm - N/A   Clear
10:15 AM 86.5 °F 88.7 °F 66.0 °F 50% 30.04 in 10.0 mi Calm Calm - N/A   Clear
10:35 AM 87.4 °F 89.5 °F 65.7 °F 48% 30.04 in 10.0 mi Calm Calm - N/A   Clear
10:55 AM 89.4 °F 91.2 °F 64.8 °F 44% 30.04 in 4.0 mi SE 4.6 mph - N/A   Clear
11:15 AM 89.8 °F 91.0 °F 64.0 °F 42% 30.03 in 4.0 mi SE 3.5 mph - N/A   Clear
11:35 AM 91.9 °F 93.3 °F 63.5 °F 39% 30.03 in 4.0 mi SSE 6.9 mph - N/A   Scattered Clouds
11:55 AM 91.2 °F 91.8 °F 62.2 °F 38% 30.03 in 4.0 mi SE 9.2 mph - N/A   Clear
12:15 PM 92.7 °F 92.5 °F 60.6 °F 34% 30.02 in 10.0 mi SE 8.1 mph - N/A   Scattered Clouds
12:35 PM 92.7 °F 92.1 °F 59.7 °F 33% 30.01 in 7.0 mi SSE 6.9 mph - N/A   Scattered Clouds
12:55 PM 93.2 °F 92.9 °F 60.1 °F 33% 30.01 in 3.0 mi SE 6.9 mph - N/A   Scattered Clouds
1:15 PM 92.7 °F 92.1 °F 59.5 °F 33% 30.01 in 4.0 mi South 4.6 mph - N/A   Clear
1:35 PM 93.7 °F 93.0 °F 58.8 °F 31% 30.00 in 4.0 mi SSE 9.2 mph - N/A   Clear
1:55 PM 95.0 °F 94.4 °F 58.8 °F 30% 30.00 in 5.0 mi South 8.1 mph - N/A   Clear
2:15 PM 96.3 °F 95.1 °F 57.6 °F 27% 30.00 in 5.0 mi South 11.5 mph 16.1 mph N/A   Clear
2:35 PM 95.9 °F 94.6 °F 57.4 °F 27% 29.99 in 2.5 mi SE 9.2 mph 17.3 mph N/A   Clear
2:55 PM 95.4 °F 94.2 °F 57.0 °F 28% 29.98 in 2.5 mi SE 6.9 mph - N/A   Clear
3:15 PM 95.7 °F 94.3 °F 56.3 °F 27% 29.97 in 4.0 mi ESE 10.4 mph 16.1 mph N/A   Clear
3:35 PM 95.4 °F 93.8 °F 56.7 °F 27% 29.97 in 3.0 mi SSE 9.2 mph 18.4 mph N/A   Clear
3:55 PM 95.7 °F 94.3 °F 56.3 °F 27% 29.96 in 5.0 mi ESE 9.2 mph - N/A   Clear
4:15 PM 97.2 °F 95.2 °F 55.2 °F 24% 29.96 in 7.0 mi ESE 9.2 mph - N/A   Clear
4:35 PM 95.9 °F 93.3 °F 53.1 °F 23% 29.95 in 7.0 mi SE 11.5 mph 17.3 mph N/A   Clear
4:55 PM 97.0 °F 95.0 °F 54.5 °F 24% 29.95 in 10.0 mi SE 6.9 mph 17.3 mph N/A   Clear
5:15 PM 97.2 °F 95.2 °F 54.3 °F 24% 29.94 in 5.0 mi SSE 6.9 mph - N/A   Clear
5:35 PM 96.8 °F 94.7 °F 54.0 °F 24% 29.93 in 7.0 mi SSE 8.1 mph - N/A   Clear
5:55 PM 96.1 °F 93.8 °F 54.1 °F 24% 29.93 in 5.0 mi South 10.4 mph - N/A   Clear
6:15 PM 95.9 °F 93.6 °F 53.8 °F 24% 29.93 in 7.0 mi SSE 8.1 mph - N/A   Clear
6:35 PM 95.2 °F 93.0 °F 53.6 °F 25% 29.93 in 5.0 mi SSE 6.9 mph - N/A   Clear
6:55 PM 94.1 °F 91.9 °F 54.0 °F 26% 29.93 in 5.0 mi SSE 5.8 mph - N/A   Clear
7:15 PM 92.7 °F 90.4 °F 54.5 °F 27% 29.93 in 5.0 mi SSE 6.9 mph - N/A   Clear
7:35 PM 90.0 °F 88.1 °F 55.4 °F 31% 29.93 in 4.0 mi Calm Calm - N/A   Clear
7:55 PM 88.3 °F 86.5 °F 55.2 °F 32% 29.94 in 7.0 mi Calm Calm - N/A   Clear
8:15 PM 86.9 °F 85.3 °F 55.2 °F 34% 29.95 in 10.0 mi SE 3.5 mph - N/A   Clear
8:35 PM 85.5 °F 84.1 °F 55.4 °F 36% 29.95 in 7.0 mi Calm Calm - N/A   Clear
8:55 PM 85.1 °F 83.9 °F 56.1 °F 37% 29.96 in 10.0 mi Calm Calm - N/A   Clear
9:15 PM 84.0 °F 83.5 °F 57.9 °F 41% 29.97 in 10.0 mi ESE 4.6 mph - N/A   Clear
9:35 PM 83.7 °F 83.3 °F 58.3 °F 42% 29.98 in 5.0 mi ESE 3.5 mph - N/A   Clear
9:55 PM 83.3 °F 83.1 °F 58.6 °F 43% 29.98 in 10.0 mi ESE 3.5 mph - N/A   Clear
10:15 PM 82.6 °F 82.6 °F 59.0 °F 45% 29.98 in 10.0 mi ESE 3.5 mph - N/A   Clear
10:35 PM 81.5 °F 81.8 °F 59.2 °F 47% 29.98 in 7.0 mi ESE 3.5 mph - N/A   Clear
10:55 PM 80.4 °F 81.1 °F 59.7 °F 49% 29.99 in 10.0 mi SE 3.5 mph - N/A   Clear
11:15 PM 80.6 °F 81.2 °F 59.9 °F 49% 29.99 in 10.0 mi SE 4.6 mph - N/A   Clear
11:35 PM 80.2 °F 81.0 °F 59.9 °F 50% 29.99 in 7.0 mi SE 4.6 mph - N/A   Clear
11:55 PM 80.1 °F 80.9 °F 59.9 °F 50% 29.99 in 10.0 mi ESE 4.6 mph - N/A   Clear